createdAt,value
2023-05-13T00:00:54.638Z,11.60
2023-05-13T00:03:21.118Z,11.65
2023-05-13T00:05:47.883Z,10.77
2023-05-13T00:08:14.306Z,13.10
2023-05-13T00:10:40.650Z,10.82
2023-05-13T00:13:06.997Z,12.57
2023-05-13T00:15:33.281Z,13.43
2023-05-13T00:17:59.689Z,11.35
2023-05-13T00:20:26.048Z,11.48
2023-05-13T00:22:52.378Z,13.45
2023-05-13T00:25:18.755Z,13.55
2023-05-13T00:27:45.088Z,12.73
2023-05-13T00:30:11.686Z,13.77
2023-05-13T00:32:38.060Z,14.57
2023-05-13T00:35:04.763Z,11.07
2023-05-13T00:37:31.180Z,14.07
2023-05-13T00:39:57.552Z,14.77
2023-05-13T00:42:24.127Z,12.00
2023-05-13T00:44:51.868Z,12.77
2023-05-13T00:47:18.283Z,12.73
2023-05-13T00:49:44.769Z,14.02
2023-05-13T00:52:12.198Z,14.35
2023-05-13T00:54:38.591Z,12.85
2023-05-13T00:57:05.257Z,12.43
2023-05-13T00:59:31.884Z,14.30
2023-05-13T01:02:40.628Z,14.70
2023-05-13T01:05:39.423Z,17.92
2023-05-13T01:08:19.760Z,13.13
2023-05-13T01:11:04.076Z,13.00
2023-05-13T01:13:34.617Z,15.88
2023-05-13T01:16:06.273Z,13.73
2023-05-13T01:18:36.885Z,13.60
2023-05-13T01:21:05.744Z,12.60
2023-05-13T01:23:32.099Z,12.80
2023-05-13T01:25:58.466Z,13.32
2023-05-13T01:28:24.882Z,12.55
2023-05-13T01:30:51.656Z,14.18
2023-05-13T01:33:18.689Z,13.68
2023-05-13T01:35:47.187Z,14.15
2023-05-13T01:38:15.266Z,13.55
2023-05-13T01:40:42.506Z,13.93
2023-05-13T01:43:08.912Z,15.57
2023-05-13T01:45:35.263Z,14.75
2023-05-13T01:48:01.708Z,13.43
2023-05-13T01:50:28.093Z,14.52
2023-05-13T01:52:54.504Z,14.90
2023-05-13T01:55:20.891Z,15.43
2023-05-13T01:57:47.268Z,15.13
2023-05-13T02:00:14.260Z,15.25
2023-05-13T02:02:40.753Z,13.60
2023-05-13T02:05:07.476Z,15.45
2023-05-13T02:07:34.262Z,14.55
2023-05-13T02:10:00.662Z,15.55
2023-05-13T02:12:27.240Z,15.57
2023-05-13T02:14:54.739Z,15.38
2023-05-13T02:17:21.461Z,15.85
2023-05-13T02:19:48.305Z,15.73
2023-05-13T02:22:14.718Z,16.38
2023-05-13T02:24:41.217Z,13.50
2023-05-13T02:27:07.626Z,15.98
2023-05-13T02:29:34.691Z,18.85
2023-05-13T02:32:01.051Z,17.08
2023-05-13T02:34:27.383Z,15.93
2023-05-13T02:36:53.742Z,15.20
2023-05-13T02:39:20.082Z,14.70
2023-05-13T02:41:46.403Z,13.55
2023-05-13T02:44:12.727Z,15.15
2023-05-13T02:46:39.038Z,16.75
2023-05-13T02:49:05.441Z,16.55
2023-05-13T02:51:31.816Z,15.15
2023-05-13T02:53:58.135Z,17.05
2023-05-13T02:56:24.423Z,17.35
2023-05-13T02:58:50.757Z,22.80
2023-05-13T03:01:17.173Z,15.35
2023-05-13T03:03:43.597Z,16.75
2023-05-13T03:06:09.950Z,17.42
2023-05-13T03:08:36.279Z,17.92
2023-05-13T03:11:02.638Z,17.05
2023-05-13T03:13:29.020Z,18.45
2023-05-13T03:15:55.373Z,19.05
2023-05-13T03:18:21.750Z,16.40
2023-05-13T03:20:48.155Z,19.02
2023-05-13T03:23:14.503Z,17.90
2023-05-13T03:25:40.863Z,17.90
2023-05-13T03:28:08.573Z,19.55
2023-05-13T03:30:35.004Z,17.33
2023-05-13T03:33:01.410Z,18.70
2023-05-13T03:35:27.752Z,15.90
2023-05-13T03:37:54.132Z,17.63
2023-05-13T03:40:20.792Z,22.52
2023-05-13T03:42:47.417Z,17.98
2023-05-13T03:45:13.717Z,22.25
2023-05-13T03:47:40.109Z,17.48
2023-05-13T03:50:07.223Z,20.17
2023-05-13T03:52:33.540Z,18.63
2023-05-13T03:54:59.869Z,17.15
2023-05-13T03:57:26.170Z,17.65
2023-05-13T03:59:52.460Z,16.25
2023-05-13T04:02:19.018Z,18.40
2023-05-13T04:04:45.487Z,17.50
2023-05-13T04:07:11.833Z,16.02
2023-05-13T04:09:38.927Z,15.20
2023-05-13T04:12:05.553Z,20.52
2023-05-13T04:14:31.861Z,17.73
2023-05-13T04:16:58.224Z,20.50
2023-05-13T04:19:24.572Z,21.08
2023-05-13T04:21:50.892Z,19.40
2023-05-13T04:24:17.236Z,20.38
2023-05-13T04:26:43.617Z,17.90
2023-05-13T04:29:09.974Z,17.02
2023-05-13T04:31:36.380Z,19.80
2023-05-13T04:34:02.732Z,18.20
2023-05-13T04:36:29.062Z,18.63
2023-05-13T04:38:55.430Z,17.23
2023-05-13T04:41:21.770Z,21.10
2023-05-13T04:43:48.087Z,20.05
2023-05-13T04:46:14.396Z,18.77
2023-05-13T04:48:40.728Z,19.33
2023-05-13T04:51:07.650Z,22.88
2023-05-13T04:53:34.786Z,22.33
2023-05-13T04:56:01.189Z,18.73
2023-05-13T04:58:28.101Z,19.23
2023-05-13T05:00:54.473Z,17.60
2023-05-13T05:03:20.868Z,20.48
2023-05-13T05:05:47.620Z,21.63
2023-05-13T05:08:13.984Z,18.38
2023-05-13T05:10:40.374Z,20.48
2023-05-13T05:13:09.348Z,19.52
2023-05-13T05:15:35.699Z,19.77
2023-05-13T05:18:02.075Z,21.90
2023-05-13T05:20:28.472Z,20.70
2023-05-13T05:22:54.828Z,18.63
2023-05-13T05:25:21.161Z,17.80
2023-05-13T05:27:47.519Z,18.98
2023-05-13T05:30:14.423Z,18.60
2023-05-13T05:32:40.815Z,15.73
2023-05-13T05:35:07.490Z,16.70
2023-05-13T05:37:34.018Z,14.90
2023-05-13T05:40:00.384Z,16.10
2023-05-13T05:42:26.701Z,17.10
2023-05-13T05:44:53.002Z,16.38
2023-05-13T05:47:19.351Z,14.65
2023-05-13T05:49:45.676Z,14.45
2023-05-13T05:52:12.028Z,15.45
2023-05-13T05:54:38.369Z,18.17
2023-05-13T05:57:04.879Z,15.65
2023-05-13T05:59:31.181Z,14.23
2023-05-13T06:01:57.604Z,13.23
2023-05-13T06:04:24.155Z,15.65
2023-05-13T06:06:50.548Z,15.30
2023-05-13T06:09:16.988Z,16.75
2023-05-13T06:11:43.342Z,14.30
2023-05-13T06:14:09.699Z,13.95
2023-05-13T06:16:36.120Z,13.07
2023-05-13T06:19:02.920Z,14.50
2023-05-13T06:21:29.285Z,15.23
2023-05-13T06:23:55.612Z,15.60
2023-05-13T06:26:21.974Z,13.73
2023-05-13T06:28:48.342Z,15.20
2023-05-13T06:31:15.050Z,15.52
2023-05-13T06:33:41.400Z,14.55
2023-05-13T06:36:08.015Z,12.70
2023-05-13T06:38:34.295Z,13.63
2023-05-13T06:41:00.680Z,14.43
2023-05-13T06:43:27.053Z,13.43
2023-05-13T06:45:53.369Z,14.13
2023-05-13T06:48:19.811Z,11.88
2023-05-13T06:50:46.125Z,13.90
2023-05-13T06:53:12.467Z,14.43
2023-05-13T06:55:38.799Z,14.18
2023-05-13T06:58:05.204Z,12.07
2023-05-13T07:00:31.648Z,12.70
2023-05-13T07:02:57.961Z,13.65
2023-05-13T07:05:24.458Z,16.08
2023-05-13T07:07:50.755Z,14.65
2023-05-13T07:10:17.204Z,14.80
2023-05-13T07:12:43.689Z,13.63
2023-05-13T07:15:10.480Z,15.00
2023-05-13T07:17:36.950Z,13.98
2023-05-13T07:20:03.671Z,14.88
2023-05-13T07:22:30.005Z,14.75
2023-05-13T07:24:56.747Z,13.07
2023-05-13T07:27:23.103Z,14.85
2023-05-13T07:29:49.459Z,14.48
2023-05-13T07:32:15.800Z,14.90
2023-05-13T07:34:42.160Z,20.67
2023-05-13T07:37:08.493Z,13.32
2023-05-13T07:39:34.852Z,13.63
2023-05-13T07:42:01.371Z,13.20
2023-05-13T07:44:27.727Z,14.88
2023-05-13T07:46:54.062Z,13.05
2023-05-13T07:49:21.123Z,14.20
2023-05-13T07:51:47.544Z,13.25
2023-05-13T07:54:13.919Z,13.55
2023-05-13T07:56:40.233Z,13.20
2023-05-13T07:59:06.528Z,14.07
2023-05-13T08:01:32.876Z,13.70
2023-05-13T08:03:59.407Z,17.33
2023-05-13T08:06:25.946Z,13.82
2023-05-13T08:08:52.273Z,13.10
2023-05-13T08:11:18.609Z,13.57
2023-05-13T08:13:45.145Z,14.45
2023-05-13T08:16:11.569Z,13.38
2023-05-13T08:18:38.000Z,18.08
2023-05-13T08:21:04.481Z,13.88
2023-05-13T08:23:43.450Z,13.90
2023-05-13T08:26:10.980Z,13.98
2023-05-13T08:28:37.328Z,18.27
2023-05-13T08:31:03.838Z,15.20
2023-05-13T08:33:30.233Z,15.98
2023-05-13T08:35:56.769Z,14.18
2023-05-13T08:38:23.095Z,14.98
2023-05-13T08:40:49.423Z,14.65
2023-05-13T08:43:16.686Z,13.68
2023-05-13T08:45:46.602Z,12.90
2023-05-13T08:48:15.824Z,12.27
2023-05-13T08:50:43.236Z,14.82
2023-05-13T08:53:11.160Z,14.23
2023-05-13T08:55:39.214Z,14.43
2023-05-13T08:58:05.942Z,14.80
2023-05-13T09:00:34.501Z,12.80
2023-05-13T09:03:01.632Z,13.77
2023-05-13T09:05:28.385Z,18.25
2023-05-13T09:07:55.492Z,13.15
2023-05-13T09:10:21.866Z,13.60
2023-05-13T09:12:50.814Z,12.63
2023-05-13T09:15:20.327Z,12.15
2023-05-13T09:17:59.843Z,12.43
2023-05-13T09:20:26.830Z,10.80
2023-05-13T09:23:05.233Z,13.77
2023-05-13T09:25:32.081Z,11.70
2023-05-13T09:28:01.128Z,13.70
2023-05-13T09:30:29.093Z,13.65
2023-05-13T09:33:12.941Z,13.55
2023-05-13T09:35:49.421Z,14.05
2023-05-13T09:38:17.820Z,12.25
2023-05-13T09:40:52.308Z,12.38
2023-05-13T09:43:23.766Z,11.13
2023-05-13T09:45:58.122Z,10.68
2023-05-13T09:48:26.603Z,11.40
2023-05-13T09:50:53.108Z,10.55
2023-05-13T09:53:19.553Z,10.45
2023-05-13T09:55:47.768Z,11.45
2023-05-13T09:58:14.239Z,12.25
2023-05-13T10:00:41.757Z,10.88
2023-05-13T10:03:09.493Z,11.35
2023-05-13T10:05:36.320Z,11.43
2023-05-13T10:08:03.326Z,8.60
2023-05-13T10:10:31.633Z,8.65
2023-05-13T10:13:09.159Z,10.00
2023-05-13T10:15:35.782Z,11.68
2023-05-13T10:18:02.404Z,10.73
2023-05-13T10:20:29.048Z,9.20
2023-05-13T10:22:56.341Z,8.23
2023-05-13T10:25:23.051Z,11.55
2023-05-13T10:27:51.048Z,9.05
2023-05-13T10:30:17.739Z,8.30
2023-05-13T10:32:44.258Z,8.02
2023-05-13T10:35:16.705Z,11.13
2023-05-13T10:38:04.805Z,10.95
2023-05-13T10:40:49.946Z,7.97
2023-05-13T10:43:29.639Z,9.02
2023-05-13T10:45:59.696Z,11.43
2023-05-13T10:48:26.423Z,8.65
2023-05-13T10:51:14.904Z,8.93
2023-05-13T10:53:49.344Z,7.45
2023-05-13T10:56:19.265Z,6.85
2023-05-13T10:58:58.264Z,7.47
2023-05-13T11:01:29.567Z,7.97
2023-05-13T11:04:04.603Z,7.75
2023-05-13T11:06:36.385Z,7.43
2023-05-13T11:09:05.810Z,10.25
2023-05-13T11:11:33.799Z,10.65
2023-05-13T11:14:00.100Z,7.50
2023-05-13T11:16:26.526Z,7.63
2023-05-13T11:18:53.387Z,7.97
2023-05-13T11:21:35.524Z,8.35
2023-05-13T11:24:05.524Z,7.30
2023-05-13T11:26:44.722Z,9.18
2023-05-13T11:29:11.064Z,8.23
2023-05-13T11:31:49.444Z,8.70
2023-05-13T11:34:17.323Z,7.55
2023-05-13T11:36:52.755Z,8.77
2023-05-13T11:39:21.209Z,6.80
2023-05-13T11:41:49.588Z,9.30
2023-05-13T11:44:20.925Z,6.55
2023-05-13T11:46:55.230Z,5.93
2023-05-13T11:49:44.448Z,6.82
2023-05-13T11:52:16.162Z,9.48
2023-05-13T11:57:20.030Z,7.05
2023-05-13T11:59:58.687Z,7.78
2023-05-13T12:02:38.743Z,9.38
2023-05-13T12:05:07.127Z,6.18
2023-05-13T12:07:35.112Z,6.68
2023-05-13T12:10:03.583Z,8.20
2023-05-13T12:12:31.177Z,8.10
2023-05-13T12:15:02.790Z,6.35
2023-05-13T12:17:30.990Z,8.43
2023-05-13T12:20:11.050Z,6.95
2023-05-13T12:22:59.924Z,7.25
2023-05-13T12:25:35.470Z,7.57
2023-05-13T12:28:15.120Z,6.85
2023-05-13T12:30:53.876Z,8.68
2023-05-13T12:33:27.969Z,7.10
2023-05-13T12:36:15.074Z,7.05
2023-05-13T12:38:59.788Z,6.50
2023-05-13T12:41:31.850Z,6.80
2023-05-13T12:44:03.258Z,9.88
2023-05-13T12:46:30.070Z,6.90
2023-05-13T12:48:58.749Z,6.05
2023-05-13T12:51:25.681Z,9.18
2023-05-13T12:53:52.749Z,7.13
2023-05-13T12:56:19.162Z,7.07
2023-05-13T12:58:45.560Z,7.78
2023-05-13T13:01:11.995Z,7.55
2023-05-13T13:03:38.645Z,7.13
2023-05-13T13:06:05.299Z,8.27
2023-05-13T13:08:31.724Z,8.52
2023-05-13T13:10:59.664Z,7.70
2023-05-13T13:13:26.049Z,7.53
2023-05-13T13:15:52.808Z,5.82
2023-05-13T13:18:19.158Z,6.20
2023-05-13T13:20:45.513Z,8.27
2023-05-13T13:23:11.877Z,10.70
2023-05-13T13:25:38.265Z,6.85
2023-05-13T13:28:04.694Z,6.40
2023-05-13T13:30:31.209Z,7.60
2023-05-13T13:32:57.605Z,8.25
2023-05-13T13:35:24.175Z,6.32
2023-05-13T13:37:50.548Z,7.85
2023-05-13T13:40:16.871Z,9.20
2023-05-13T13:42:44.535Z,8.93
2023-05-13T13:45:12.657Z,6.93
2023-05-13T13:47:39.179Z,7.32
2023-05-13T13:50:06.268Z,7.97
2023-05-13T13:52:32.814Z,7.22
2023-05-13T13:54:59.173Z,7.82
2023-05-13T13:57:25.503Z,7.40
2023-05-13T13:59:51.829Z,8.88
2023-05-13T14:02:18.187Z,7.40
2023-05-13T14:04:46.176Z,6.25
2023-05-13T14:07:12.666Z,7.13
2023-05-13T14:09:38.995Z,7.13
2023-05-13T14:12:05.621Z,7.30
2023-05-13T14:14:31.932Z,7.60
2023-05-13T14:16:58.735Z,7.35
2023-05-13T14:19:25.111Z,7.75
2023-05-13T14:21:51.463Z,8.30
2023-05-13T14:24:17.862Z,11.48
2023-05-13T14:26:45.231Z,6.93
2023-05-13T14:29:11.549Z,8.70
2023-05-13T14:31:37.997Z,8.07
2023-05-13T14:34:06.367Z,8.93
2023-05-13T14:36:33.898Z,7.97
2023-05-13T14:39:00.267Z,7.82
2023-05-13T14:41:26.632Z,8.73
2023-05-13T14:43:52.982Z,7.50
2023-05-13T14:46:19.343Z,6.65
2023-05-13T14:48:45.875Z,8.77
2023-05-13T14:51:12.198Z,7.82
2023-05-13T14:53:39.551Z,7.78
2023-05-13T14:56:06.959Z,7.88
2023-05-13T14:58:33.380Z,7.45
2023-05-13T15:00:59.792Z,8.18
2023-05-13T15:03:26.240Z,8.13
2023-05-13T15:05:52.751Z,7.93
2023-05-13T15:08:19.101Z,10.50
2023-05-13T15:10:45.613Z,8.75
2023-05-13T15:13:11.963Z,7.32
2023-05-13T15:15:38.319Z,8.38
2023-05-13T15:18:05.590Z,8.13
2023-05-13T15:20:31.991Z,7.30
2023-05-13T15:22:58.289Z,8.48
2023-05-13T15:25:24.606Z,8.25
2023-05-13T15:27:50.927Z,6.90
2023-05-13T15:30:17.303Z,7.10
2023-05-13T15:32:43.762Z,7.53
2023-05-13T15:35:10.116Z,6.93
2023-05-13T15:37:36.491Z,7.22
2023-05-13T15:40:02.972Z,7.20
2023-05-13T15:42:29.319Z,8.35
2023-05-13T15:44:55.610Z,7.45
2023-05-13T15:47:22.198Z,8.57
2023-05-13T15:49:48.658Z,7.70
2023-05-13T15:52:15.013Z,10.65
2023-05-13T15:54:41.429Z,6.35
2023-05-13T15:57:07.828Z,7.32
2023-05-13T15:59:34.229Z,7.43
2023-05-13T16:02:00.646Z,6.90
2023-05-13T16:04:27.093Z,6.68
2023-05-13T16:06:53.470Z,6.72
2023-05-13T16:09:19.858Z,7.70
2023-05-13T16:11:46.177Z,7.57
2023-05-13T16:14:12.745Z,8.82
2023-05-13T16:16:39.135Z,7.97
2023-05-13T16:19:05.549Z,6.63
2023-05-13T16:21:32.026Z,10.70
2023-05-13T16:23:58.439Z,6.97
2023-05-13T16:26:24.796Z,6.43
2023-05-13T16:28:51.611Z,7.18
2023-05-13T16:31:18.067Z,8.45
2023-05-13T16:33:44.431Z,11.60
2023-05-13T16:36:10.789Z,6.50
2023-05-13T16:38:37.601Z,7.28
2023-05-13T16:41:04.086Z,7.38
2023-05-13T16:43:30.420Z,6.32
2023-05-13T16:45:56.791Z,7.50
2023-05-13T16:48:23.186Z,7.85
2023-05-13T16:50:49.589Z,7.00
2023-05-13T16:53:15.974Z,8.23
2023-05-13T16:55:42.311Z,8.98
2023-05-13T16:58:08.681Z,6.95
2023-05-13T17:00:35.084Z,6.07
2023-05-13T17:03:01.564Z,7.03
2023-05-13T17:05:27.964Z,10.00
2023-05-13T17:07:54.254Z,7.80
2023-05-13T17:10:20.717Z,7.32
2023-05-13T17:12:47.116Z,6.80
2023-05-13T17:15:13.466Z,9.02
2023-05-13T17:17:39.866Z,7.78
2023-05-13T17:20:06.696Z,7.60
2023-05-13T17:22:33.040Z,6.07
2023-05-13T17:24:59.376Z,7.80
2023-05-13T17:27:25.704Z,6.25
2023-05-13T17:29:52.092Z,5.80
2023-05-13T17:32:18.387Z,5.97
2023-05-13T17:34:44.717Z,7.10
2023-05-13T17:37:11.062Z,7.50
2023-05-13T17:39:37.358Z,7.85
2023-05-13T17:42:03.709Z,7.05
2023-05-13T17:44:30.085Z,8.05
2023-05-13T17:46:56.588Z,7.00
2023-05-13T17:49:22.896Z,7.82
2023-05-13T17:51:49.237Z,6.78
2023-05-13T17:54:15.601Z,7.50
2023-05-13T17:56:41.945Z,6.53
2023-05-13T17:59:08.256Z,7.82
2023-05-13T18:01:34.574Z,8.75
2023-05-13T18:04:00.922Z,8.45
2023-05-13T18:06:27.291Z,8.10
2023-05-13T18:08:53.581Z,9.02
2023-05-13T18:11:19.950Z,7.63
2023-05-13T18:13:46.257Z,7.80
2023-05-13T18:16:12.681Z,10.52
2023-05-13T18:18:39.051Z,8.70
2023-05-13T18:21:05.427Z,8.65
2023-05-13T18:23:31.792Z,9.52
2023-05-13T18:25:58.185Z,8.15
2023-05-13T18:28:24.567Z,9.93
2023-05-13T18:30:50.914Z,7.47
2023-05-13T18:33:19.865Z,10.18
2023-05-13T18:35:46.239Z,8.43
2023-05-13T18:38:12.565Z,8.00
2023-05-13T18:40:38.909Z,8.00
2023-05-13T18:43:05.278Z,12.10
2023-05-13T18:45:31.638Z,10.32
2023-05-13T18:47:58.126Z,7.90
2023-05-13T18:50:24.964Z,9.57
2023-05-13T18:52:51.419Z,10.02
2023-05-13T18:55:17.846Z,8.70
2023-05-13T18:57:44.217Z,10.15
2023-05-13T19:00:11.011Z,8.98
2023-05-13T19:02:37.550Z,8.60
2023-05-13T19:05:04.551Z,9.48
2023-05-13T19:07:30.869Z,7.38
2023-05-13T19:09:57.260Z,9.15
2023-05-13T19:12:23.645Z,8.73
2023-05-13T19:14:49.998Z,7.63
2023-05-13T19:17:16.458Z,9.18
2023-05-13T19:19:42.817Z,11.18
2023-05-13T19:22:09.161Z,11.10
2023-05-13T19:24:35.852Z,10.90
2023-05-13T19:27:02.190Z,10.55
2023-05-13T19:29:28.532Z,11.80
2023-05-13T19:31:54.887Z,10.00
2023-05-13T19:34:21.234Z,11.30
2023-05-13T19:36:47.683Z,12.00
2023-05-13T19:39:14.121Z,10.02
2023-05-13T19:41:40.504Z,9.63
2023-05-13T19:44:06.867Z,11.35
2023-05-13T19:46:33.251Z,12.20
2023-05-13T19:48:59.593Z,11.98
2023-05-13T19:51:25.909Z,10.60
2023-05-13T19:53:52.276Z,11.05
2023-05-13T19:56:18.617Z,12.57
2023-05-13T19:58:44.964Z,11.80
2023-05-13T20:01:11.349Z,11.15
2023-05-13T20:03:37.807Z,12.45
2023-05-13T20:06:04.201Z,11.43
2023-05-13T20:08:30.553Z,10.55
2023-05-13T20:10:56.842Z,10.30
2023-05-13T20:13:23.207Z,10.45
2023-05-13T20:15:49.603Z,11.18
2023-05-13T20:18:16.039Z,11.23
2023-05-13T20:20:42.443Z,12.55
2023-05-13T20:23:08.835Z,10.52
2023-05-13T20:25:35.184Z,12.27
2023-05-13T20:28:01.558Z,10.95
2023-05-13T20:30:27.893Z,12.85
2023-05-13T20:32:54.273Z,10.93
2023-05-13T20:35:20.736Z,11.77
2023-05-13T20:37:47.111Z,13.23
2023-05-13T20:40:13.426Z,11.95
2023-05-13T20:42:39.751Z,14.05
2023-05-13T20:45:06.765Z,14.98
2023-05-13T20:47:33.092Z,14.88
2023-05-13T20:49:59.434Z,15.27
2023-05-13T20:52:25.782Z,14.55
2023-05-13T20:54:53.018Z,19.42
2023-05-13T20:57:19.354Z,14.55
2023-05-13T20:59:45.668Z,14.45
2023-05-13T21:02:11.970Z,15.38
2023-05-13T21:04:38.317Z,14.75
2023-05-13T21:07:04.755Z,12.52
2023-05-13T21:09:31.049Z,16.02
2023-05-13T21:11:57.368Z,15.02
2023-05-13T21:14:23.737Z,15.85
2023-05-13T21:16:50.313Z,13.48
2023-05-13T21:19:22.037Z,16.38
2023-05-13T21:21:48.406Z,14.63
2023-05-13T21:24:18.852Z,16.92
2023-05-13T21:26:45.857Z,15.73
2023-05-13T21:29:12.286Z,14.63
2023-05-13T21:31:38.671Z,15.27
2023-05-13T21:34:05.198Z,15.18
2023-05-13T21:36:31.552Z,15.75
2023-05-13T21:38:57.874Z,16.83
2023-05-13T21:41:24.252Z,16.45
2023-05-13T21:43:50.600Z,16.45
2023-05-13T21:46:16.994Z,17.77
2023-05-13T21:48:43.354Z,16.98
2023-05-13T21:51:09.766Z,15.93
2023-05-13T21:53:36.084Z,16.75
2023-05-13T21:56:02.429Z,14.82
2023-05-13T21:58:28.799Z,15.60
2023-05-13T22:00:55.196Z,16.10
2023-05-13T22:03:21.545Z,17.58
2023-05-13T22:05:47.919Z,18.27
2023-05-13T22:08:14.294Z,16.30
2023-05-13T22:10:40.687Z,16.00
2023-05-13T22:13:07.292Z,18.38
2023-05-13T22:15:33.757Z,19.60
2023-05-13T22:18:00.370Z,17.15
2023-05-13T22:20:26.819Z,17.92
2023-05-13T22:22:53.173Z,16.52
2023-05-13T22:25:19.525Z,17.02
2023-05-13T22:27:47.514Z,16.83
2023-05-13T22:30:14.208Z,18.15
2023-05-13T22:32:40.706Z,17.08
2023-05-13T22:35:07.681Z,16.67
2023-05-13T22:37:34.039Z,20.50
2023-05-13T22:40:00.340Z,19.08
2023-05-13T22:42:26.694Z,19.45
2023-05-13T22:44:53.006Z,17.85
2023-05-13T22:47:19.298Z,20.80
2023-05-13T22:49:45.940Z,19.38
2023-05-13T22:52:12.298Z,20.33
2023-05-13T22:54:38.622Z,18.90
2023-05-13T22:57:05.182Z,20.63
2023-05-13T22:59:31.504Z,22.90
2023-05-13T23:01:58.261Z,19.48
2023-05-13T23:04:24.776Z,19.88
2023-05-13T23:06:51.204Z,18.50
2023-05-13T23:09:17.580Z,19.30
2023-05-13T23:11:44.051Z,24.45
2023-05-13T23:14:10.384Z,22.20
2023-05-13T23:16:36.828Z,20.35
2023-05-13T23:19:03.269Z,23.13
2023-05-13T23:21:29.661Z,19.70
2023-05-13T23:23:55.998Z,20.27
2023-05-13T23:26:22.304Z,21.58
2023-05-13T23:28:48.617Z,20.85
2023-05-13T23:31:14.932Z,19.83
2023-05-13T23:33:41.259Z,23.45
2023-05-13T23:36:07.734Z,20.48
2023-05-13T23:38:35.065Z,23.08
2023-05-13T23:41:01.366Z,21.13
2023-05-13T23:43:27.754Z,21.77
2023-05-13T23:45:54.200Z,21.98
2023-05-13T23:48:20.567Z,25.65
2023-05-13T23:50:46.896Z,22.52
2023-05-13T23:53:13.235Z,22.52
2023-05-13T23:55:39.530Z,23.10
2023-05-13T23:58:05.863Z,26.05
